Time,TemperatureF,DewpointF,PressureIn,WindDirection,WindDirectionDegrees,WindSpeedMPH,WindSpeedGustMPH,Humidity,HourlyPrecipIn,Conditions,Clouds,dailyrainin,SoftwareType,DateUTC
2013-02-02 00:00:00,12.6,5.0,30.24,WNW,293,1.1,1.1,71,0.00,,,0.00,WUHU216HW,2013-02-02 05:00:00,
2013-02-02 00:05:00,12.6,5.0,30.23,WNW,293,0.7,1.1,71,0.00,,,0.00,WUHU216HW,2013-02-02 05:05:00,
2013-02-02 00:10:00,12.6,5.0,30.23,WNW,293,0.7,0.9,71,0.00,,,0.00,WUHU216HW,2013-02-02 05:10:00,
2013-02-02 00:15:00,12.6,5.0,30.23,WNW,293,1.1,1.1,71,0.00,,,0.00,WUHU216HW,2013-02-02 05:15:00,
2013-02-02 00:20:00,12.8,5.1,30.23,WNW,293,0.2,1.1,71,0.00,,,0.00,WUHU216HW,2013-02-02 05:20:00,
2013-02-02 00:25:00,13.0,5.3,30.22,WNW,293,0.4,0.7,71,0.00,,,0.00,WUHU216HW,2013-02-02 05:25:00,
2013-02-02 00:30:00,13.0,5.3,30.22,WNW,293,0.4,0.7,71,0.00,,,0.00,WUHU216HW,2013-02-02 05:30:00,
2013-02-02 00:35:00,13.0,5.3,30.22,WNW,293,0.2,0.9,71,0.00,,,0.00,WUHU216HW,2013-02-02 05:35:00,
2013-02-02 00:40:00,13.0,5.3,30.22,WNW,293,0.0,0.9,71,0.00,,,0.00,WUHU216HW,2013-02-02 05:40:00,
2013-02-02 00:45:00,13.1,5.5,30.22,WNW,293,0.2,1.1,71,0.00,,,0.00,WUHU216HW,2013-02-02 05:45:00,
2013-02-02 00:50:00,13.1,5.5,30.22,WNW,293,0.4,1.1,71,0.00,,,0.00,WUHU216HW,2013-02-02 05:50:00,
2013-02-02 00:55:00,13.3,5.7,30.22,WNW,293,0.4,0.9,71,0.00,,,0.00,WUHU216HW,2013-02-02 05:55:00,
2013-02-02 01:00:00,13.3,5.7,30.22,WNW,293,0.2,0.7,71,0.00,,,0.00,WUHU216HW,2013-02-02 06:00:00,
2013-02-02 01:05:00,13.3,5.7,30.22,WNW,293,0.2,0.7,71,0.00,,,0.00,WUHU216HW,2013-02-02 06:05:00,
2013-02-02 01:10:00,13.3,5.7,30.22,WNW,293,1.1,1.1,71,0.00,,,0.00,WUHU216HW,2013-02-02 06:10:00,
2013-02-02 01:15:00,13.3,5.7,30.21,WNW,293,0.2,1.1,71,0.00,,,0.00,WUHU216HW,2013-02-02 06:15:00,
2013-02-02 01:20:00,13.3,5.7,30.21,WNW,293,0.9,0.9,71,0.00,,,0.00,WUHU216HW,2013-02-02 06:20:00,
2013-02-02 01:25:00,13.3,5.7,30.21,WNW,293,1.1,1.1,71,0.00,,,0.00,WUHU216HW,2013-02-02 06:25:00,
2013-02-02 01:30:00,13.3,5.7,30.21,WNW,293,1.1,1.3,71,0.00,,,0.00,WUHU216HW,2013-02-02 06:30:00,
2013-02-02 01:35:00,13.3,5.7,30.21,WNW,293,0.2,1.3,71,0.00,,,0.00,WUHU216HW,2013-02-02 06:35:00,
2013-02-02 01:40:00,13.3,5.7,30.21,WNW,293,0.2,0.9,71,0.00,,,0.00,WUHU216HW,2013-02-02 06:40:00,
2013-02-02 01:45:00,13.1,5.5,30.20,WNW,293,0.7,0.9,71,0.00,,,0.00,WUHU216HW,2013-02-02 06:45:00,
2013-02-02 01:50:00,13.1,5.5,30.20,WNW,293,0.0,0.7,71,0.00,,,0.00,WUHU216HW,2013-02-02 06:50:00,
2013-02-02 01:55:00,13.1,5.5,30.20,WNW,293,0.0,0.7,71,0.00,,,0.00,WUHU216HW,2013-02-02 06:55:00,
2013-02-02 02:00:00,13.1,5.5,30.20,WNW,293,0.4,1.1,71,0.00,,,0.00,WUHU216HW,2013-02-02 07:00:00,
2013-02-02 02:05:00,13.1,5.5,30.20,WNW,293,0.4,1.3,71,0.00,,,0.00,WUHU216HW,2013-02-02 07:05:00,
2013-02-02 02:10:00,13.1,5.5,30.20,WNW,293,0.4,1.3,71,0.00,,,0.00,WUHU216HW,2013-02-02 07:10:00,
2013-02-02 02:15:00,13.1,5.8,30.20,WNW,293,0.4,1.8,72,0.00,,,0.00,WUHU216HW,2013-02-02 07:15:00,
2013-02-02 02:20:00,13.1,5.5,30.19,WNW,293,0.9,1.8,71,0.00,,,0.00,WUHU216HW,2013-02-02 07:20:00,
2013-02-02 02:25:00,13.1,5.8,30.19,WNW,293,1.6,1.6,72,0.00,,,0.00,WUHU216HW,2013-02-02 07:25:00,
2013-02-02 02:30:00,13.1,5.8,30.19,WNW,293,0.4,1.6,72,0.00,,,0.00,WUHU216HW,2013-02-02 07:30:00,
2013-02-02 02:35:00,13.1,5.8,30.19,WNW,293,0.2,1.1,72,0.00,,,0.00,WUHU216HW,2013-02-02 07:35:00,
2013-02-02 02:40:00,13.3,5.9,30.19,WNW,293,0.7,1.1,72,0.00,,,0.00,WUHU216HW,2013-02-02 07:40:00,
2013-02-02 02:45:00,13.3,5.9,30.19,WNW,293,0.4,0.9,72,0.00,,,0.00,WUHU216HW,2013-02-02 07:45:00,
2013-02-02 02:50:00,13.3,5.9,30.19,WNW,293,1.1,1.1,72,0.00,,,0.00,WUHU216HW,2013-02-02 07:50:00,
2013-02-02 02:55:00,13.3,5.9,30.19,WNW,293,1.1,1.1,72,0.00,,,0.00,WUHU216HW,2013-02-02 07:55:00,
2013-02-02 03:00:00,13.1,5.8,30.19,WNW,293,1.1,1.1,72,0.00,,,0.00,WUHU216HW,2013-02-02 08:00:00,
2013-02-02 03:05:00,13.1,5.8,30.18,WNW,293,0.2,1.1,72,0.00,,,0.00,WUHU216HW,2013-02-02 08:05:00,
2013-02-02 03:10:00,13.1,5.8,30.18,WNW,293,0.4,0.9,72,0.00,,,0.00,WUHU216HW,2013-02-02 08:10:00,
2013-02-02 03:15:00,13.3,5.9,30.18,WNW,293,0.4,0.9,72,0.00,,,0.00,WUHU216HW,2013-02-02 08:15:00,
2013-02-02 03:20:00,13.3,6.3,30.17,WNW,293,0.9,1.1,73,0.00,,,0.00,WUHU216HW,2013-02-02 08:20:00,
2013-02-02 03:25:00,13.3,6.3,30.17,WNW,293,0.4,1.1,73,0.00,,,0.00,WUHU216HW,2013-02-02 08:25:00,
2013-02-02 03:30:00,13.3,6.3,30.16,WNW,293,0.7,1.1,73,0.00,,,0.00,WUHU216HW,2013-02-02 08:30:00,
2013-02-02 03:35:00,13.5,6.5,30.16,WNW,293,0.4,1.1,73,0.00,,,0.00,WUHU216HW,2013-02-02 08:35:00,
2013-02-02 03:40:00,13.5,6.5,30.16,WNW,293,0.7,1.6,73,0.00,,,0.00,WUHU216HW,2013-02-02 08:40:00,
2013-02-02 03:45:00,13.7,6.7,30.16,WNW,293,0.0,1.6,73,0.00,,,0.00,WUHU216HW,2013-02-02 08:45:00,
2013-02-02 03:50:00,13.7,6.7,30.16,WNW,293,0.2,1.1,73,0.00,,,0.00,WUHU216HW,2013-02-02 08:50:00,
2013-02-02 03:55:00,13.7,6.7,30.16,WNW,293,1.1,1.3,73,0.00,,,0.00,WUHU216HW,2013-02-02 08:55:00,
2013-02-02 04:00:00,13.7,6.7,30.16,WNW,293,0.2,1.3,73,0.00,,,0.00,WUHU216HW,2013-02-02 09:00:00,
2013-02-02 04:05:00,13.9,6.9,30.15,WNW,293,0.7,2.2,73,0.00,,,0.00,WUHU216HW,2013-02-02 09:05:00,
2013-02-02 04:10:00,13.9,6.9,30.15,WNW,293,0.7,2.2,73,0.00,,,0.00,WUHU216HW,2013-02-02 09:10:00,
2013-02-02 04:15:00,13.9,6.9,30.15,WNW,293,0.4,1.8,73,0.00,,,0.00,WUHU216HW,2013-02-02 09:15:00,
2013-02-02 04:20:00,14.0,7.0,30.15,WNW,293,0.4,1.3,73,0.00,,,0.00,WUHU216HW,2013-02-02 09:20:00,
2013-02-02 04:25:00,14.0,7.0,30.14,WNW,293,0.4,1.1,73,0.00,,,0.00,WUHU216HW,2013-02-02 09:25:00,
2013-02-02 04:30:00,14.0,7.3,30.14,WNW,293,0.0,1.8,74,0.00,,,0.00,WUHU216HW,2013-02-02 09:30:00,
2013-02-02 04:35:00,14.0,7.3,30.14,WNW,293,0.7,1.8,74,0.00,,,0.00,WUHU216HW,2013-02-02 09:35:00,
2013-02-02 04:40:00,14.0,7.3,30.14,WNW,293,0.2,1.3,74,0.00,,,0.00,WUHU216HW,2013-02-02 09:40:00,
2013-02-02 04:45:00,14.2,7.5,30.14,WNW,293,0.4,1.8,74,0.00,,,0.00,WUHU216HW,2013-02-02 09:45:00,
2013-02-02 04:50:00,14.2,7.5,30.13,WNW,293,1.1,1.8,74,0.00,,,0.00,WUHU216HW,2013-02-02 09:50:00,
2013-02-02 04:55:00,14.2,7.5,30.13,WNW,293,1.8,1.8,74,0.00,,,0.00,WUHU216HW,2013-02-02 09:55:00,
2013-02-02 05:00:00,14.2,7.8,30.13,WNW,293,0.7,1.8,75,0.00,,,0.00,WUHU216HW,2013-02-02 10:00:00,
2013-02-02 05:05:00,14.4,7.9,30.12,WNW,293,0.0,1.1,75,0.00,,,0.00,WUHU216HW,2013-02-02 10:05:00,
2013-02-02 05:10:00,14.4,7.9,30.12,WNW,293,0.4,1.1,75,0.00,,,0.00,WUHU216HW,2013-02-02 10:10:00,
2013-02-02 05:15:00,14.4,7.9,30.11,WNW,293,0.4,1.8,75,0.00,,,0.00,WUHU216HW,2013-02-02 10:15:00,
2013-02-02 05:20:00,14.4,7.9,30.11,WNW,293,0.4,1.8,75,0.00,,,0.00,WUHU216HW,2013-02-02 10:20:00,
2013-02-02 05:25:00,14.6,8.1,30.11,WNW,293,0.7,2.5,75,0.00,,,0.00,WUHU216HW,2013-02-02 10:25:00,
2013-02-02 05:30:00,14.6,8.1,30.11,WNW,293,1.3,2.5,75,0.00,,,0.00,WUHU216HW,2013-02-02 10:30:00,
2013-02-02 05:35:00,14.6,8.4,30.11,WNW,293,0.4,1.8,76,0.00,,,0.00,WUHU216HW,2013-02-02 10:35:00,
2013-02-02 05:40:00,14.8,8.6,30.10,WNW,293,0.2,1.8,76,0.00,,,0.00,WUHU216HW,2013-02-02 10:40:00,
2013-02-02 05:45:00,14.8,8.6,30.10,WNW,293,0.2,0.9,76,0.00,,,0.00,WUHU216HW,2013-02-02 10:45:00,
2013-02-02 05:50:00,14.8,8.6,30.10,WNW,293,1.6,1.6,76,0.00,,,0.00,WUHU216HW,2013-02-02 10:50:00,
2013-02-02 05:55:00,14.8,8.6,30.09,WNW,293,1.3,1.6,76,0.00,,,0.00,WUHU216HW,2013-02-02 10:55:00,
2013-02-02 06:00:00,14.8,8.6,30.09,WNW,293,0.4,1.3,76,0.00,,,0.00,WUHU216HW,2013-02-02 11:00:00,
2013-02-02 06:05:00,14.9,8.7,30.09,WNW,293,0.2,1.3,76,0.00,,,0.00,WUHU216HW,2013-02-02 11:05:00,
2013-02-02 06:10:00,14.8,8.6,30.09,WNW,293,0.4,1.3,76,0.00,,,0.00,WUHU216HW,2013-02-02 11:10:00,
2013-02-02 06:15:00,14.8,8.6,30.10,WNW,293,1.1,1.3,76,0.00,,,0.00,WUHU216HW,2013-02-02 11:15:00,
2013-02-02 06:20:00,14.8,8.6,30.09,WNW,293,1.1,1.3,76,0.00,,,0.00,WUHU216HW,2013-02-02 11:20:00,
2013-02-02 06:25:00,14.8,8.6,30.09,WNW,293,0.7,1.3,76,0.00,,,0.00,WUHU216HW,2013-02-02 11:25:00,
2013-02-02 06:30:00,14.8,8.6,30.10,WNW,293,0.2,1.3,76,0.00,,,0.00,WUHU216HW,2013-02-02 11:30:00,
2013-02-02 06:35:00,14.8,8.8,30.09,WNW,293,0.4,2.5,77,0.00,,,0.00,WUHU216HW,2013-02-02 11:35:00,
2013-02-02 06:40:00,14.9,8.7,30.09,WNW,293,0.2,2.5,76,0.00,,,0.00,WUHU216HW,2013-02-02 11:40:00,
2013-02-02 06:45:00,14.9,8.7,30.09,WNW,293,0.0,0.4,76,0.00,,,0.00,WUHU216HW,2013-02-02 11:45:00,
2013-02-02 06:50:00,15.1,8.9,30.09,WNW,293,0.4,1.1,76,0.00,,,0.00,WUHU216HW,2013-02-02 11:50:00,
2013-02-02 06:55:00,15.1,8.9,30.09,WNW,293,0.0,1.1,76,0.00,,,0.00,WUHU216HW,2013-02-02 11:55:00,
2013-02-02 07:00:00,15.1,9.2,30.09,WNW,293,0.2,0.9,77,0.00,,,0.00,WUHU216HW,2013-02-02 12:00:00,
2013-02-02 07:05:00,15.1,9.2,30.09,WNW,293,0.4,1.1,77,0.00,,,0.00,WUHU216HW,2013-02-02 12:05:00,
2013-02-02 07:10:00,15.1,9.2,30.09,WNW,293,0.4,1.3,77,0.00,,,0.00,WUHU216HW,2013-02-02 12:10:00,
2013-02-02 07:15:00,15.3,9.4,30.09,WNW,293,0.0,1.3,77,0.00,,,0.00,WUHU216HW,2013-02-02 12:15:00,
2013-02-02 07:20:00,15.3,9.4,30.09,WNW,293,0.4,0.9,77,0.00,,,0.00,WUHU216HW,2013-02-02 12:20:00,
2013-02-02 07:25:00,15.3,9.4,30.09,WNW,293,1.1,1.1,77,0.00,,,0.00,WUHU216HW,2013-02-02 12:25:00,
2013-02-02 07:30:00,15.3,9.4,30.09,WNW,293,0.4,1.1,77,0.00,,,0.00,WUHU216HW,2013-02-02 12:30:00,
2013-02-02 07:35:00,15.3,9.4,30.09,WNW,293,0.4,1.1,77,0.00,,,0.00,WUHU216HW,2013-02-02 12:35:00,
2013-02-02 07:40:00,15.3,9.4,30.09,WNW,293,0.0,0.9,77,0.00,,,0.00,WUHU216HW,2013-02-02 12:40:00,
2013-02-02 07:45:00,15.3,9.4,30.08,WNW,293,0.4,0.9,77,0.00,,,0.00,WUHU216HW,2013-02-02 12:45:00,
2013-02-02 07:50:00,15.3,9.4,30.09,WNW,293,0.0,0.7,77,0.00,,,0.00,WUHU216HW,2013-02-02 12:50:00,
2013-02-02 07:55:00,15.5,9.8,30.08,WNW,293,0.4,0.4,78,0.00,,,0.00,WUHU216HW,2013-02-02 12:55:00,
2013-02-02 08:00:00,15.5,9.8,30.08,WNW,293,0.4,0.4,78,0.00,,,0.00,WUHU216HW,2013-02-02 13:00:00,
2013-02-02 08:05:00,15.5,9.8,30.08,WNW,293,0.0,0.9,78,0.00,,,0.00,WUHU216HW,2013-02-02 13:05:00,
2013-02-02 08:10:00,15.7,10.4,30.08,WNW,293,0.2,0.9,79,0.00,,,0.00,WUHU216HW,2013-02-02 13:10:00,
2013-02-02 08:15:00,15.5,9.8,30.08,WNW,293,0.4,0.9,78,0.00,,,0.00,WUHU216HW,2013-02-02 13:15:00,
2013-02-02 08:20:00,15.5,9.8,30.07,WNW,293,0.4,1.1,78,0.00,,,0.00,WUHU216HW,2013-02-02 13:20:00,
2013-02-02 08:25:00,15.7,10.4,30.07,WNW,293,0.7,1.1,79,0.00,,,0.00,WUHU216HW,2013-02-02 13:25:00,
2013-02-02 08:30:00,15.8,10.5,30.07,WNW,293,0.7,1.1,79,0.00,,,0.00,WUHU216HW,2013-02-02 13:30:00,
2013-02-02 08:35:00,15.8,10.5,30.06,WNW,293,0.4,1.3,79,0.00,,,0.00,WUHU216HW,2013-02-02 13:35:00,
2013-02-02 08:40:00,16.0,10.6,30.06,WNW,293,0.4,1.3,79,0.00,,,0.00,WUHU216HW,2013-02-02 13:40:00,
2013-02-02 08:45:00,16.2,10.8,30.06,WNW,293,0.7,1.1,79,0.00,,,0.00,WUHU216HW,2013-02-02 13:45:00,
2013-02-02 08:50:00,16.2,10.8,30.06,WNW,293,1.8,1.8,79,0.00,,,0.00,WUHU216HW,2013-02-02 13:50:00,
2013-02-02 08:55:00,16.4,11.0,30.06,WNW,293,0.4,1.8,79,0.00,,,0.00,WUHU216HW,2013-02-02 13:55:00,
2013-02-02 09:00:00,16.4,11.0,30.06,WNW,293,0.2,1.3,79,0.00,,,0.00,WUHU216HW,2013-02-02 14:00:00,
2013-02-02 09:05:00,16.6,11.2,30.06,WNW,293,1.1,1.1,79,0.00,,,0.00,WUHU216HW,2013-02-02 14:05:00,
2013-02-02 09:10:00,16.7,11.4,30.06,WNW,293,0.0,1.1,79,0.00,,,0.00,WUHU216HW,2013-02-02 14:10:00,
2013-02-02 09:15:00,16.9,11.5,30.06,WNW,293,0.4,1.1,79,0.00,,,0.00,WUHU216HW,2013-02-02 14:15:00,
2013-02-02 09:20:00,16.9,11.5,30.05,WNW,293,0.4,0.4,79,0.00,,,0.00,WUHU216HW,2013-02-02 14:20:00,
2013-02-02 09:25:00,16.9,11.2,30.05,WNW,293,0.9,0.9,78,0.00,,,0.00,WUHU216HW,2013-02-02 14:25:00,
2013-02-02 09:30:00,17.1,11.3,30.05,WNW,293,0.9,1.1,78,0.00,,,0.00,WUHU216HW,2013-02-02 14:30:00,
2013-02-02 09:35:00,17.3,11.5,30.05,WNW,293,0.4,1.1,78,0.00,,,0.00,WUHU216HW,2013-02-02 14:35:00,
2013-02-02 09:40:00,17.5,11.7,30.05,WNW,293,0.4,1.1,78,0.00,,,0.00,WUHU216HW,2013-02-02 14:40:00,
2013-02-02 09:45:00,17.6,11.9,30.05,WNW,293,0.4,1.1,78,0.00,,,0.00,WUHU216HW,2013-02-02 14:45:00,
2013-02-02 09:50:00,17.6,11.9,30.04,WNW,293,0.2,1.1,78,0.00,,,0.00,WUHU216HW,2013-02-02 14:50:00,
2013-02-02 09:55:00,17.8,12.1,30.04,WNW,293,0.4,1.1,78,0.00,,,0.00,WUHU216HW,2013-02-02 14:55:00,
2013-02-02 10:00:00,18.0,12.3,30.04,WNW,293,1.1,1.1,78,0.00,,,0.00,WUHU216HW,2013-02-02 15:00:00,
2013-02-02 10:05:00,18.4,12.5,30.04,WNW,293,0.4,1.1,78,0.00,,,0.00,WUHU216HW,2013-02-02 15:05:00,
2013-02-02 10:10:00,18.4,12.5,30.03,WNW,293,1.1,1.3,78,0.00,,,0.00,WUHU216HW,2013-02-02 15:10:00,
2013-02-02 10:15:00,18.7,12.9,30.03,WNW,293,0.7,1.3,78,0.00,,,0.00,WUHU216HW,2013-02-02 15:15:00,
2013-02-02 10:20:00,18.9,13.1,30.04,WNW,293,0.7,1.3,78,0.00,,,0.00,WUHU216HW,2013-02-02 15:20:00,
2013-02-02 10:25:00,19.1,13.0,30.03,WNW,293,1.6,1.6,77,0.00,,,0.00,WUHU216HW,2013-02-02 15:25:00,
2013-02-02 10:30:00,19.3,13.2,30.03,WNW,293,1.1,1.6,77,0.00,,,0.00,WUHU216HW,2013-02-02 15:30:00,
2013-02-02 10:35:00,19.4,13.3,30.03,WNW,293,1.1,1.1,77,0.00,,,0.00,WUHU216HW,2013-02-02 15:35:00,
2013-02-02 10:40:00,19.4,13.3,30.02,WNW,293,0.9,1.3,77,0.00,,,0.00,WUHU216HW,2013-02-02 15:40:00,
2013-02-02 10:45:00,19.4,13.0,30.02,WNW,293,0.0,1.3,76,0.00,,,0.00,WUHU216HW,2013-02-02 15:45:00,
2013-02-02 10:50:00,19.6,13.1,30.02,WNW,293,2.0,2.0,76,0.00,,,0.00,WUHU216HW,2013-02-02 15:50:00,
2013-02-02 10:55:00,19.8,13.3,30.02,WNW,293,0.4,2.0,76,0.00,,,0.00,WUHU216HW,2013-02-02 15:55:00,
2013-02-02 11:00:00,19.8,13.3,30.01,WNW,293,0.7,1.8,76,0.00,,,0.00,WUHU216HW,2013-02-02 16:00:00,
2013-02-02 11:05:00,20.2,13.7,30.01,WNW,293,1.1,1.8,76,0.00,,,0.00,WUHU216HW,2013-02-02 16:05:00,
2013-02-02 11:10:00,20.3,13.9,30.01,WNW,293,1.1,1.1,76,0.00,,,0.00,WUHU216HW,2013-02-02 16:10:00,
2013-02-02 11:15:00,20.5,14.0,30.01,WNW,293,0.4,1.8,76,0.00,,,0.00,WUHU216HW,2013-02-02 16:15:00,
2013-02-02 11:20:00,20.5,13.8,30.01,WNW,293,1.1,1.8,75,0.00,,,0.00,WUHU216HW,2013-02-02 16:20:00,
2013-02-02 11:25:00,20.5,13.8,30.01,WNW,293,1.1,1.6,75,0.00,,,0.00,WUHU216HW,2013-02-02 16:25:00,
2013-02-02 11:30:00,20.9,14.4,30.01,WNW,293,0.0,1.6,76,0.00,,,0.00,WUHU216HW,2013-02-02 16:30:00,
2013-02-02 11:35:00,21.2,14.5,30.01,WNW,293,1.3,1.3,75,0.00,,,0.00,WUHU216HW,2013-02-02 16:35:00,
2013-02-02 11:40:00,21.2,14.8,30.00,WNW,293,2.2,2.2,76,0.00,,,0.00,WUHU216HW,2013-02-02 16:40:00,
2013-02-02 11:45:00,21.2,14.2,30.00,WNW,293,0.4,2.2,74,0.00,,,0.00,WUHU216HW,2013-02-02 16:45:00,
2013-02-02 11:50:00,21.2,14.8,30.00,WNW,293,0.4,1.8,76,0.00,,,0.00,WUHU216HW,2013-02-02 16:50:00,
2013-02-02 11:55:00,21.2,14.5,30.00,WNW,293,0.7,1.8,75,0.00,,,0.00,WUHU216HW,2013-02-02 16:55:00,
2013-02-02 12:00:00,21.2,14.8,29.99,WNW,293,0.7,1.1,76,0.00,,,0.00,WUHU216HW,2013-02-02 17:00:00,
2013-02-02 12:05:00,21.6,15.1,29.99,WNW,293,0.4,1.1,76,0.00,,,0.00,WUHU216HW,2013-02-02 17:05:00,
2013-02-02 12:10:00,21.8,15.0,29.99,WNW,293,0.7,1.1,75,0.00,,,0.00,WUHU216HW,2013-02-02 17:10:00,
2013-02-02 12:15:00,22.0,15.2,29.99,WNW,293,0.4,1.8,75,0.00,,,0.00,WUHU216HW,2013-02-02 17:15:00,
2013-02-02 12:20:00,21.8,15.0,29.98,WNW,293,0.7,1.8,75,0.00,,,0.00,WUHU216HW,2013-02-02 17:20:00,
2013-02-02 12:25:00,22.0,15.2,29.98,WNW,293,0.4,1.3,75,0.00,,,0.00,WUHU216HW,2013-02-02 17:25:00,
2013-02-02 12:30:00,22.0,15.2,29.98,WNW,293,0.2,1.3,75,0.00,,,0.00,WUHU216HW,2013-02-02 17:30:00,
2013-02-02 12:35:00,22.0,15.2,29.97,WNW,293,0.2,0.9,75,0.00,,,0.00,WUHU216HW,2013-02-02 17:35:00,
2013-02-02 12:40:00,22.1,15.4,29.97,WNW,293,0.4,0.9,75,0.00,,,0.00,WUHU216HW,2013-02-02 17:40:00,
2013-02-02 12:45:00,22.3,15.6,29.97,WNW,293,0.4,1.3,75,0.00,,,0.00,WUHU216HW,2013-02-02 17:45:00,
2013-02-02 12:50:00,22.5,15.8,29.97,WNW,293,1.8,1.8,75,0.00,,,0.00,WUHU216HW,2013-02-02 17:50:00,
2013-02-02 12:55:00,22.7,15.9,29.97,WNW,293,1.1,1.8,75,0.00,,,0.00,WUHU216HW,2013-02-02 17:55:00,
2013-02-02 13:00:00,22.7,15.9,29.97,WNW,293,0.7,1.6,75,0.00,,,0.00,WUHU216HW,2013-02-02 18:00:00,
2013-02-02 13:05:00,22.7,15.9,29.96,WNW,293,0.4,1.1,75,0.00,,,0.00,WUHU216HW,2013-02-02 18:05:00,
2013-02-02 13:10:00,22.9,16.1,29.96,WNW,293,0.4,1.1,75,0.00,,,0.00,WUHU216HW,2013-02-02 18:10:00,
2013-02-02 13:15:00,23.0,16.3,29.96,WNW,293,1.1,1.1,75,0.00,,,0.00,WUHU216HW,2013-02-02 18:15:00,
2013-02-02 13:20:00,23.0,16.3,29.96,WNW,293,1.6,1.6,75,0.00,,,0.00,WUHU216HW,2013-02-02 18:20:00,
2013-02-02 13:25:00,23.0,16.3,29.96,WNW,293,0.2,1.6,75,0.00,,,0.00,WUHU216HW,2013-02-02 18:25:00,
2013-02-02 13:30:00,23.2,16.5,29.96,WNW,293,0.4,0.7,75,0.00,,,0.00,WUHU216HW,2013-02-02 18:30:00,
2013-02-02 13:35:00,23.4,16.7,29.96,WNW,293,0.4,0.9,75,0.00,,,0.00,WUHU216HW,2013-02-02 18:35:00,
2013-02-02 13:40:00,23.4,16.7,29.96,WNW,293,1.1,1.1,75,0.00,,,0.00,WUHU216HW,2013-02-02 18:40:00,
2013-02-02 13:45:00,23.6,16.8,29.96,WNW,293,0.4,1.1,75,0.00,,,0.00,WUHU216HW,2013-02-02 18:45:00,
2013-02-02 13:50:00,23.6,16.8,29.96,WNW,293,0.4,1.1,75,0.00,,,0.00,WUHU216HW,2013-02-02 18:50:00,
2013-02-02 13:55:00,23.8,17.0,29.95,WNW,293,0.0,0.9,75,0.00,,,0.00,WUHU216HW,2013-02-02 18:55:00,
2013-02-02 14:00:00,23.8,17.0,29.95,WNW,293,0.4,0.9,75,0.00,,,0.00,WUHU216HW,2013-02-02 19:00:00,
2013-02-02 14:05:00,23.9,17.1,29.95,WNW,293,0.0,0.4,75,0.00,,,0.00,WUHU216HW,2013-02-02 19:05:00,
2013-02-02 14:10:00,23.9,17.1,29.95,WNW,293,0.0,0.7,75,0.00,,,0.00,WUHU216HW,2013-02-02 19:10:00,
2013-02-02 14:15:00,24.1,17.3,29.95,WNW,293,0.0,0.7,75,0.00,,,0.00,WUHU216HW,2013-02-02 19:15:00,
2013-02-02 14:20:00,24.1,17.3,29.95,WNW,293,0.0,0.7,75,0.00,,,0.00,WUHU216HW,2013-02-02 19:20:00,
2013-02-02 14:25:00,24.1,17.3,29.95,WNW,293,0.0,0.7,75,0.00,,,0.00,WUHU216HW,2013-02-02 19:25:00,
2013-02-02 14:30:00,24.3,17.5,29.95,WNW,293,0.2,0.9,75,0.00,,,0.00,WUHU216HW,2013-02-02 19:30:00,
2013-02-02 14:35:00,24.3,17.5,29.94,WNW,293,0.2,0.9,75,0.00,,,0.00,WUHU216HW,2013-02-02 19:35:00,
2013-02-02 14:40:00,24.3,17.5,29.95,WNW,293,0.4,0.4,75,0.00,,,0.00,WUHU216HW,2013-02-02 19:40:00,
2013-02-02 14:45:00,24.3,17.5,29.95,WNW,293,0.0,0.4,75,0.00,,,0.00,WUHU216HW,2013-02-02 19:45:00,
2013-02-02 14:50:00,24.3,17.5,29.94,WNW,293,0.0,0.7,75,0.00,,,0.00,WUHU216HW,2013-02-02 19:50:00,
2013-02-02 14:55:00,24.5,17.6,29.94,WNW,293,0.2,0.7,75,0.00,,,0.00,WUHU216HW,2013-02-02 19:55:00,
2013-02-02 15:00:00,24.5,17.6,29.94,WNW,293,0.2,0.4,75,0.00,,,0.00,WUHU216HW,2013-02-02 20:00:00,
2013-02-02 15:05:00,24.3,17.5,29.95,WNW,293,0.0,0.4,75,0.00,,,0.00,WUHU216HW,2013-02-02 20:05:00,
2013-02-02 15:10:00,24.3,17.5,29.95,WNW,293,0.2,0.9,75,0.00,,,0.00,WUHU216HW,2013-02-02 20:10:00,
2013-02-02 15:15:00,24.3,17.8,29.95,WNW,293,0.0,0.9,76,0.00,,,0.00,WUHU216HW,2013-02-02 20:15:00,
2013-02-02 15:20:00,24.5,18.0,29.95,WNW,293,0.0,0.4,76,0.00,,,0.00,WUHU216HW,2013-02-02 20:20:00,
2013-02-02 15:25:00,24.5,18.0,29.95,WNW,293,0.2,0.4,76,0.00,,,0.00,WUHU216HW,2013-02-02 20:25:00,
2013-02-02 15:30:00,24.7,18.2,29.95,WNW,293,0.0,0.2,76,0.00,,,0.00,WUHU216HW,2013-02-02 20:30:00,
2013-02-02 15:35:00,24.8,18.4,29.95,WNW,293,0.4,0.4,76,0.00,,,0.00,WUHU216HW,2013-02-02 20:35:00,
2013-02-02 15:40:00,24.7,18.2,29.95,WNW,293,0.2,0.4,76,0.00,,,0.00,WUHU216HW,2013-02-02 20:40:00,
2013-02-02 15:45:00,24.5,18.0,29.95,WNW,293,0.0,0.4,76,0.00,,,0.00,WUHU216HW,2013-02-02 20:45:00,
2013-02-02 15:50:00,24.5,18.0,29.95,WNW,293,0.0,0.4,76,0.00,,,0.00,WUHU216HW,2013-02-02 20:50:00,
2013-02-02 15:55:00,24.5,18.0,29.95,WNW,293,0.0,0.4,76,0.00,,,0.00,WUHU216HW,2013-02-02 20:55:00,
2013-02-02 16:00:00,24.5,18.0,29.95,WNW,293,0.0,0.4,76,0.00,,,0.00,WUHU216HW,2013-02-02 21:00:00,
2013-02-02 16:05:00,24.5,18.0,29.95,WNW,293,0.7,0.7,76,0.00,,,0.00,WUHU216HW,2013-02-02 21:05:00,
2013-02-02 16:10:00,24.3,17.8,29.96,WNW,293,1.3,1.3,76,0.00,,,0.00,WUHU216HW,2013-02-02 21:10:00,
2013-02-02 16:15:00,23.8,17.3,29.96,WNW,293,1.1,1.6,76,0.00,,,0.00,WUHU216HW,2013-02-02 21:15:00,
2013-02-02 16:20:00,23.4,16.9,29.96,WNW,293,0.4,1.6,76,0.00,,,0.00,WUHU216HW,2013-02-02 21:20:00,
2013-02-02 16:25:00,23.2,17.1,29.96,WNW,293,1.3,2.0,77,0.00,,,0.00,WUHU216HW,2013-02-02 21:25:00,
2013-02-02 16:30:00,22.9,16.8,29.96,WNW,293,1.8,2.0,77,0.00,,,0.00,WUHU216HW,2013-02-02 21:30:00,
2013-02-02 16:35:00,22.7,16.6,29.96,WNW,293,0.4,2.5,77,0.00,,,0.00,WUHU216HW,2013-02-02 21:35:00,
2013-02-02 16:40:00,22.5,16.4,29.96,WNW,293,1.1,2.5,77,0.00,,,0.00,WUHU216HW,2013-02-02 21:40:00,
2013-02-02 16:45:00,22.3,16.2,29.97,WNW,293,1.6,2.0,77,0.00,,,0.00,WUHU216HW,2013-02-02 21:45:00,
2013-02-02 16:50:00,22.0,15.9,29.97,WNW,293,1.3,2.0,77,0.00,,,0.00,WUHU216HW,2013-02-02 21:50:00,
2013-02-02 16:55:00,21.8,15.7,29.97,WNW,293,2.7,2.7,77,0.00,,,0.00,WUHU216HW,2013-02-02 21:55:00,
2013-02-02 17:00:00,21.4,15.3,29.98,WNW,293,0.4,2.7,77,0.00,,,0.00,WUHU216HW,2013-02-02 22:00:00,
2013-02-02 17:05:00,21.4,15.3,29.98,WNW,293,1.8,1.8,77,0.00,,,0.00,WUHU216HW,2013-02-02 22:05:00,
2013-02-02 17:10:00,21.2,15.1,29.98,WNW,293,0.4,2.5,77,0.00,,,0.00,WUHU216HW,2013-02-02 22:10:00,
2013-02-02 17:15:00,21.1,14.6,29.98,WNW,293,1.6,2.5,76,0.00,,,0.00,WUHU216HW,2013-02-02 22:15:00,
2013-02-02 17:20:00,20.9,14.4,29.98,WNW,293,0.4,1.8,76,0.00,,,0.00,WUHU216HW,2013-02-02 22:20:00,
2013-02-02 17:25:00,20.9,14.4,29.99,WNW,293,0.4,1.8,76,0.00,,,0.00,WUHU216HW,2013-02-02 22:25:00,
2013-02-02 17:30:00,20.9,14.4,29.99,WNW,293,0.0,0.4,76,0.00,,,0.00,WUHU216HW,2013-02-02 22:30:00,
2013-02-02 17:35:00,20.7,14.2,29.99,WNW,293,0.0,0.4,76,0.00,,,0.00,WUHU216HW,2013-02-02 22:35:00,
2013-02-02 17:40:00,20.5,14.0,29.99,WNW,293,0.2,1.1,76,0.00,,,0.00,WUHU216HW,2013-02-02 22:40:00,
2013-02-02 17:45:00,20.2,13.4,29.99,WNW,293,0.4,1.3,75,0.00,,,0.00,WUHU216HW,2013-02-02 22:45:00,
2013-02-02 17:50:00,19.8,13.1,29.99,WNW,293,0.2,1.3,75,0.00,,,0.00,WUHU216HW,2013-02-02 22:50:00,
2013-02-02 17:55:00,19.8,13.1,29.99,WNW,293,0.0,0.4,75,0.00,,,0.00,WUHU216HW,2013-02-02 22:55:00,
2013-02-02 18:00:00,19.8,13.1,30.00,WNW,293,0.4,0.4,75,0.00,,,0.00,WUHU216HW,2013-02-02 23:00:00,
2013-02-02 18:05:00,19.4,12.7,30.00,WNW,293,0.4,1.6,75,0.00,,,0.00,WUHU216HW,2013-02-02 23:05:00,
2013-02-02 18:10:00,19.4,13.0,30.00,WNW,293,0.0,1.6,76,0.00,,,0.00,WUHU216HW,2013-02-02 23:10:00,
2013-02-02 18:15:00,19.4,13.0,30.00,WNW,293,0.7,0.7,76,0.00,,,0.00,WUHU216HW,2013-02-02 23:15:00,
2013-02-02 18:20:00,19.3,12.8,30.00,WNW,293,0.7,0.7,76,0.00,,,0.00,WUHU216HW,2013-02-02 23:20:00,
2013-02-02 18:25:00,19.3,12.8,30.00,WNW,293,0.2,1.3,76,0.00,,,0.00,WUHU216HW,2013-02-02 23:25:00,
2013-02-02 18:30:00,19.1,12.3,30.01,WNW,293,0.2,1.3,75,0.00,,,0.00,WUHU216HW,2013-02-02 23:30:00,
2013-02-02 18:35:00,19.1,12.3,30.01,WNW,293,0.2,0.9,75,0.00,,,0.00,WUHU216HW,2013-02-02 23:35:00,
2013-02-02 18:40:00,19.1,12.3,30.01,WNW,293,0.4,0.9,75,0.00,,,0.00,WUHU216HW,2013-02-02 23:40:00,
2013-02-02 18:45:00,19.1,12.3,30.01,WNW,293,0.2,0.7,75,0.00,,,0.00,WUHU216HW,2013-02-02 23:45:00,
2013-02-02 18:50:00,18.7,11.7,30.01,WNW,293,1.1,1.1,74,0.00,,,0.00,WUHU216HW,2013-02-02 23:50:00,
2013-02-02 18:55:00,18.7,12.0,30.01,WNW,293,0.0,1.1,75,0.00,,,0.00,WUHU216HW,2013-02-02 23:55:00,
2013-02-02 19:00:00,18.7,12.0,30.02,WNW,293,0.7,1.1,75,0.00,,,0.00,WUHU216HW,2013-02-03 00:00:00,
2013-02-02 19:05:00,18.7,11.7,30.02,WNW,293,0.4,0.9,74,0.00,,,0.00,WUHU216HW,2013-02-03 00:05:00,
2013-02-02 19:10:00,18.5,11.5,30.02,WNW,293,0.7,0.7,74,0.00,,,0.00,WUHU216HW,2013-02-03 00:10:00,
2013-02-02 19:15:00,18.5,11.5,30.02,WNW,293,0.4,0.7,74,0.00,,,0.00,WUHU216HW,2013-02-03 00:15:00,
2013-02-02 19:20:00,18.5,11.5,30.02,WNW,293,0.0,0.7,74,0.00,,,0.00,WUHU216HW,2013-02-03 00:20:00,
2013-02-02 19:25:00,18.4,11.3,30.02,WNW,293,0.2,0.7,74,0.00,,,0.00,WUHU216HW,2013-02-03 00:25:00,
2013-02-02 19:30:00,18.4,11.3,30.02,WNW,293,0.4,0.4,74,0.00,,,0.00,WUHU216HW,2013-02-03 00:30:00,
2013-02-02 19:35:00,18.4,11.3,30.02,WNW,293,0.9,0.9,74,0.00,,,0.00,WUHU216HW,2013-02-03 00:35:00,
2013-02-02 19:40:00,18.2,11.2,30.02,WNW,293,0.9,1.1,74,0.00,,,0.00,WUHU216HW,2013-02-03 00:40:00,
2013-02-02 19:45:00,18.0,11.1,30.02,WNW,293,0.0,1.1,74,0.00,,,0.00,WUHU216HW,2013-02-03 00:45:00,
2013-02-02 19:50:00,18.0,11.1,30.02,WNW,293,0.4,0.9,74,0.00,,,0.00,WUHU216HW,2013-02-03 00:50:00,
2013-02-02 19:55:00,17.8,10.9,30.02,WNW,293,0.7,0.7,74,0.00,,,0.00,WUHU216HW,2013-02-03 00:55:00,
2013-02-02 20:00:00,17.6,10.7,30.02,WNW,293,0.9,1.8,74,0.00,,,0.00,WUHU216HW,2013-02-03 01:00:00,
2013-02-02 20:05:00,17.6,10.7,30.03,WNW,293,0.4,1.8,74,0.00,,,0.00,WUHU216HW,2013-02-03 01:05:00,
2013-02-02 20:10:00,17.5,10.5,30.02,WNW,293,0.0,0.4,74,0.00,,,0.00,WUHU216HW,2013-02-03 01:10:00,
2013-02-02 20:15:00,17.3,10.4,30.03,WNW,293,0.4,0.4,74,0.00,,,0.00,WUHU216HW,2013-02-03 01:15:00,
2013-02-02 20:20:00,17.1,10.2,30.03,WNW,293,1.6,1.6,74,0.00,,,0.00,WUHU216HW,2013-02-03 01:20:00,
2013-02-02 20:25:00,16.7,9.8,30.03,WNW,293,1.1,1.6,74,0.00,,,0.00,WUHU216HW,2013-02-03 01:25:00,
2013-02-02 20:30:00,16.6,9.6,30.03,WNW,293,1.6,1.6,74,0.00,,,0.00,WUHU216HW,2013-02-03 01:30:00,
2013-02-02 20:35:00,16.2,9.3,30.03,WNW,293,0.7,1.6,74,0.00,,,0.00,WUHU216HW,2013-02-03 01:35:00,
2013-02-02 20:40:00,16.0,9.2,30.03,WNW,293,0.7,0.7,74,0.00,,,0.00,WUHU216HW,2013-02-03 01:40:00,
2013-02-02 20:45:00,15.8,9.0,30.03,WNW,293,0.2,0.7,74,0.00,,,0.00,WUHU216HW,2013-02-03 01:45:00,
2013-02-02 20:50:00,15.5,8.7,30.03,WNW,293,0.7,0.7,74,0.00,,,0.00,WUHU216HW,2013-02-03 01:50:00,
2013-02-02 20:55:00,15.1,8.3,30.03,WNW,293,0.4,1.1,74,0.00,,,0.00,WUHU216HW,2013-02-03 01:55:00,
2013-02-02 21:00:00,14.9,8.1,30.03,WNW,293,1.1,1.1,74,0.00,,,0.00,WUHU216HW,2013-02-03 02:00:00,
2013-02-02 21:05:00,14.8,7.9,30.03,WNW,293,0.4,1.1,74,0.00,,,0.00,WUHU216HW,2013-02-03 02:05:00,
2013-02-02 21:10:00,14.8,8.3,30.03,WNW,293,1.3,1.3,75,0.00,,,0.00,WUHU216HW,2013-02-03 02:10:00,
2013-02-02 21:15:00,14.6,8.1,30.03,WNW,293,0.7,1.3,75,0.00,,,0.00,WUHU216HW,2013-02-03 02:15:00,
2013-02-02 21:20:00,14.6,8.1,30.03,WNW,293,0.4,0.9,75,0.00,,,0.00,WUHU216HW,2013-02-03 02:20:00,
2013-02-02 21:25:00,14.6,8.1,30.03,WNW,293,0.9,0.9,75,0.00,,,0.00,WUHU216HW,2013-02-03 02:25:00,
2013-02-02 21:30:00,14.8,8.3,30.03,WNW,293,0.4,1.1,75,0.00,,,0.00,WUHU216HW,2013-02-03 02:30:00,
2013-02-02 21:35:00,14.8,8.3,30.03,WNW,293,0.2,1.1,75,0.00,,,0.00,WUHU216HW,2013-02-03 02:35:00,
2013-02-02 21:40:00,14.6,8.1,30.04,WNW,293,0.9,0.9,75,0.00,,,0.00,WUHU216HW,2013-02-03 02:40:00,
2013-02-02 21:45:00,14.6,8.1,30.04,WNW,293,0.2,1.3,75,0.00,,,0.00,WUHU216HW,2013-02-03 02:45:00,
2013-02-02 21:50:00,14.6,8.1,30.03,WNW,293,0.7,1.3,75,0.00,,,0.00,WUHU216HW,2013-02-03 02:50:00,
2013-02-02 21:55:00,14.4,7.9,30.04,WNW,293,0.4,0.7,75,0.00,,,0.00,WUHU216HW,2013-02-03 02:55:00,
2013-02-02 22:00:00,14.6,8.4,30.04,WNW,293,0.2,0.7,76,0.00,,,0.00,WUHU216HW,2013-02-03 03:00:00,
2013-02-02 22:05:00,14.8,8.6,30.04,WNW,293,0.0,0.7,76,0.00,,,0.00,WUHU216HW,2013-02-03 03:05:00,
2013-02-02 22:10:00,14.4,8.2,30.04,WNW,293,0.4,0.9,76,0.00,,,0.00,WUHU216HW,2013-02-03 03:10:00,
2013-02-02 22:15:00,14.0,7.6,30.04,WNW,293,0.2,0.9,75,0.00,,,0.00,WUHU216HW,2013-02-03 03:15:00,
2013-02-02 22:20:00,13.9,7.7,30.03,WNW,293,0.2,0.2,76,0.00,,,0.00,WUHU216HW,2013-02-03 03:20:00,
2013-02-02 22:25:00,13.9,7.7,30.03,WNW,293,0.4,0.4,76,0.00,,,0.00,WUHU216HW,2013-02-03 03:25:00,
2013-02-02 22:30:00,13.9,7.7,30.03,WNW,293,0.0,0.4,76,0.00,,,0.00,WUHU216HW,2013-02-03 03:30:00,
2013-02-02 22:35:00,14.6,9.3,30.03,WNW,293,0.0,0.4,79,0.00,,,0.00,WUHU216HW,2013-02-03 03:35:00,
2013-02-02 22:40:00,16.0,11.3,30.03,WNW,293,0.0,0.0,81,0.00,,,0.00,WUHU216HW,2013-02-03 03:40:00,
2013-02-02 22:45:00,15.5,10.2,30.03,WNW,293,0.0,0.0,79,0.00,,,0.00,WUHU216HW,2013-02-03 03:45:00,
2013-02-02 22:50:00,14.8,9.5,30.03,WNW,293,0.0,0.0,79,0.00,,,0.00,WUHU216HW,2013-02-03 03:50:00,
2013-02-02 22:55:00,14.0,8.5,30.02,WNW,293,0.0,0.0,78,0.00,,,0.00,WUHU216HW,2013-02-03 03:55:00,
2013-02-02 23:00:00,14.0,8.5,30.02,WNW,293,0.0,0.0,78,0.00,,,0.00,WUHU216HW,2013-02-03 04:00:00,
2013-02-02 23:05:00,14.0,8.5,30.02,WNW,293,0.0,0.0,78,0.00,,,0.00,WUHU216HW,2013-02-03 04:05:00,
2013-02-02 23:10:00,13.7,8.1,30.02,WNW,293,0.0,0.0,78,0.00,,,0.00,WUHU216HW,2013-02-03 04:10:00,
2013-02-02 23:15:00,13.9,8.3,30.02,WNW,293,0.0,0.0,78,0.00,,,0.00,WUHU216HW,2013-02-03 04:15:00,
2013-02-02 23:20:00,13.7,8.1,30.02,WNW,293,0.0,0.0,78,0.00,,,0.00,WUHU216HW,2013-02-03 04:20:00,
2013-02-02 23:25:00,13.3,7.4,30.01,WNW,293,0.0,0.0,77,0.00,,,0.00,WUHU216HW,2013-02-03 04:25:00,
2013-02-02 23:30:00,12.8,6.8,30.01,WNW,293,0.0,0.0,77,0.00,,,0.00,WUHU216HW,2013-02-03 04:30:00,
2013-02-02 23:35:00,12.2,6.3,30.01,WNW,293,0.0,0.0,77,0.00,,,0.00,WUHU216HW,2013-02-03 04:35:00,
2013-02-02 23:40:00,11.9,5.7,30.01,WNW,293,0.0,0.0,76,0.00,,,0.00,WUHU216HW,2013-02-03 04:40:00,
2013-02-02 23:45:00,11.5,5.3,30.01,WNW,293,0.0,0.0,76,0.00,,,0.00,WUHU216HW,2013-02-03 04:45:00,
2013-02-02 23:50:00,11.3,5.1,30.01,WNW,293,0.0,0.0,76,0.00,,,0.00,WUHU216HW,2013-02-03 04:50:00,
2013-02-02 23:55:00,11.2,5.0,30.01,WNW,293,0.0,0.0,76,0.00,,,0.00,WUHU216HW,2013-02-03 04:55:00,